Home   Weather   Poland   Gliwice   Past weeks
Flag for Poland

Past Weather in Gliwice, Poland — Yesterday and Last 2 Weeks

Currently: 66 °F. Clear. (Weather station: Katowice Airport, Poland). See more current weather

Past Weather in Gliwice — Graph

°F

Gliwice Temperature Yesterday

Maximum temperature yesterday: 90 °F (at 2:00 pm)
Minimum temperature yesterday: 63 °F (at 4:00 am)
Average temperature yesterday: 75 °F

High & Low Weather Summary for the Past Weeks

 TemperatureHumidityPressure
High93 °F (Jul 10, 2:00 pm)100% (Jun 28, 4:30 am)30.15 "Hg (Jun 28, 4:30 am)
Low52 °F (Jul 3, 5:00 am)29% (Jun 29, 7:00 pm)29.71 "Hg (Jun 30, 4:30 pm)
Average70 °F72%29.92 "Hg
* Reported Jun 28 3:00 am — Jul 13 3:00 am, Gliwice. Weather by CustomWeather, © 2024

Note: Actual official high and low records may vary slightly from our data, if they occured in-between our weather recording intervals... More about our weather records

Gliwice Weather History for the Previous 24 Hours

Scroll right to see more
 ConditionsComfort  
Time TempWeatherWind HumidityBarometerVisibility
3:00 am
Sat, Jul 13
66 °FClear.6 mph94%29.80 "Hg10 mi
2:30 am66 °FPassing clouds.6 mph94%29.80 "HgN/A
2:00 am66 °FPassing clouds.5 mph100%29.80 "HgN/A
1:30 am66 °FClear.2 mph100%29.80 "Hg10 mi
1:00 am66 °FSprinkles. Passing clouds.1 mph100%29.80 "HgN/A
12:30 am66 °FThunderstorms. Passing clouds.2 mph94%29.80 "Hg6 mi
12:00 am66 °FSprinkles. Passing clouds.6 mph100%29.83 "Hg5 mi
11:30 pm
Fri, Jul 12
68 °FThunderstorms. Passing clouds.12 mph94%29.86 "Hg3 mi
11:00 pm72 °FStrong thunderstorms. Passing clouds.26 mph73%29.83 "Hg1 mi
10:30 pm75 °FPassing clouds.15 mph83%29.74 "HgN/A
10:00 pm73 °FClear.8 mph89%29.77 "Hg10 mi
9:30 pm73 °FClear.7 mph94%29.77 "Hg10 mi
9:00 pm73 °FClear.6 mph94%29.77 "Hg10 mi
8:30 pm73 °FSunny.6 mph94%29.80 "Hg10 mi
8:00 pm73 °FSunny.5 mph89%29.80 "Hg10 mi
7:30 pm73 °FSunny.6 mph89%29.83 "Hg10 mi
7:00 pm73 °FSunny.6 mph83%29.83 "Hg10 mi
6:30 pm75 °FSunny.7 mph78%29.86 "Hg10 mi
6:00 pm75 °FPassing clouds.9 mph78%29.86 "HgN/A
5:30 pm73 °FScattered clouds.9 mph89%29.86 "HgN/A
5:00 pm73 °FSprinkles. Partly sunny.7 mph89%29.89 "HgN/A
4:30 pm75 °FThunderstorms. Partly sunny.10 mph78%29.89 "Hg4 mi
4:00 pm84 °FThundershowers. Scattered clouds.9 mph51%29.89 "HgN/A
3:30 pm86 °FPassing clouds.7 mph46%29.89 "HgN/A
3:00 pm88 °FSunny.8 mph43%29.89 "Hg10 mi
2:30 pm90 °FSunny.8 mph38%29.92 "Hg10 mi
2:00 pm90 °FSunny.10 mph41%29.92 "Hg10 mi
1:30 pm88 °FPassing clouds.7 mph43%29.95 "HgN/A
1:00 pm86 °FSunny.9 mph46%29.95 "Hg10 mi
12:30 pm86 °FPassing clouds.10 mph46%29.95 "HgN/A
12:00 pm84 °FPassing clouds.10 mph55%29.95 "HgN/A
11:30 am84 °FPassing clouds.8 mph51%29.98 "HgN/A
11:00 am84 °FPassing clouds.7 mph48%29.98 "HgN/A
10:00 am81 °FPassing clouds.6 mph62%29.98 "HgN/A
9:30 am79 °FPassing clouds.6 mph65%30.01 "HgN/A
9:00 am79 °FSunny.6 mph70%30.01 "Hg10 mi
8:30 am75 °FPassing clouds.6 mph78%30.01 "HgN/A
8:00 am73 °FPassing clouds.3 mph83%30.01 "HgN/A
7:00 am70 °FClear.2 mph88%30.01 "Hg5 mi
6:30 am66 °FClear.2 mph94%30.01 "Hg5 mi
6:00 am63 °FFog.2 mph100%30.01 "Hg3 mi
5:30 am63 °FMild.1 mph100%30.01 "Hg1 mi
5:00 am63 °FMild.2 mph100%30.01 "Hg1 mi
4:00 am63 °FMild.2 mph100%30.01 "Hg1 mi
Weather by CustomWeather, © 2024

See weather overview